sensor_id;sensor_type;location;lat;lon;timestamp;temperature;humidity
32217;DHT22;67098;51.140;4.088;2023-02-25T00:00:21;7.30;94.90
32217;DHT22;67098;51.140;4.088;2023-02-25T00:02:48;7.20;95.20
32217;DHT22;67098;51.140;4.088;2023-02-25T00:05:15;7.10;95.40
32217;DHT22;67098;51.140;4.088;2023-02-25T00:07:41;7.20;95.30
32217;DHT22;67098;51.140;4.088;2023-02-25T00:10:09;7.20;95.30
32217;DHT22;67098;51.140;4.088;2023-02-25T00:12:40;7.30;95.30
32217;DHT22;67098;51.140;4.088;2023-02-25T00:15:06;7.40;95.10
32217;DHT22;67098;51.140;4.088;2023-02-25T00:17:32;7.50;95.00
32217;DHT22;67098;51.140;4.088;2023-02-25T00:19:58;7.50;94.80
32217;DHT22;67098;51.140;4.088;2023-02-25T00:22:26;7.60;94.40
32217;DHT22;67098;51.140;4.088;2023-02-25T00:24:55;7.70;94.10
32217;DHT22;67098;51.140;4.088;2023-02-25T00:27:23;7.70;93.90
32217;DHT22;67098;51.140;4.088;2023-02-25T00:29:52;7.70;94.00
32217;DHT22;67098;51.140;4.088;2023-02-25T00:32:18;7.60;94.30
32217;DHT22;67098;51.140;4.088;2023-02-25T00:34:44;7.60;94.30
32217;DHT22;67098;51.140;4.088;2023-02-25T00:37:11;7.60;94.70
32217;DHT22;67098;51.140;4.088;2023-02-25T00:39:36;7.60;94.50
32217;DHT22;67098;51.140;4.088;2023-02-25T00:42:16;7.60;94.20
32217;DHT22;67098;51.140;4.088;2023-02-25T00:44:49;7.60;94.20
32217;DHT22;67098;51.140;4.088;2023-02-25T00:47:16;7.70;94.00
32217;DHT22;67098;51.140;4.088;2023-02-25T00:49:46;7.70;94.10
32217;DHT22;67098;51.140;4.088;2023-02-25T00:52:13;7.70;94.00
32217;DHT22;67098;51.140;4.088;2023-02-25T00:54:39;7.60;93.80
32217;DHT22;67098;51.140;4.088;2023-02-25T00:57:05;7.50;93.80
32217;DHT22;67098;51.140;4.088;2023-02-25T00:59:31;7.40;93.80
32217;DHT22;67098;51.140;4.088;2023-02-25T01:01:56;7.40;93.70
32217;DHT22;67098;51.140;4.088;2023-02-25T01:04:22;7.40;93.80
32217;DHT22;67098;51.140;4.088;2023-02-25T01:06:48;7.40;93.80
32217;DHT22;67098;51.140;4.088;2023-02-25T01:09:14;7.30;93.80
32217;DHT22;67098;51.140;4.088;2023-02-25T01:11:42;7.30;93.80
32217;DHT22;67098;51.140;4.088;2023-02-25T01:14:18;7.30;93.80
32217;DHT22;67098;51.140;4.088;2023-02-25T01:16:45;7.30;93.80
32217;DHT22;67098;51.140;4.088;2023-02-25T01:19:13;7.20;93.80
32217;DHT22;67098;51.140;4.088;2023-02-25T01:21:45;7.20;93.80
32217;DHT22;67098;51.140;4.088;2023-02-25T01:24:14;7.20;93.60
32217;DHT22;67098;51.140;4.088;2023-02-25T01:26:41;7.20;93.70
32217;DHT22;67098;51.140;4.088;2023-02-25T01:29:09;7.20;93.60
32217;DHT22;67098;51.140;4.088;2023-02-25T01:31:35;7.30;93.40
32217;DHT22;67098;51.140;4.088;2023-02-25T01:34:04;7.20;93.30
32217;DHT22;67098;51.140;4.088;2023-02-25T01:36:31;7.30;93.10
32217;DHT22;67098;51.140;4.088;2023-02-25T01:38:58;7.20;93.60
32217;DHT22;67098;51.140;4.088;2023-02-25T01:41:25;7.20;93.40
32217;DHT22;67098;51.140;4.088;2023-02-25T01:44:11;7.20;93.60
32217;DHT22;67098;51.140;4.088;2023-02-25T01:46:39;7.10;94.00
32217;DHT22;67098;51.140;4.088;2023-02-25T01:51:51;7.00;94.90
32217;DHT22;67098;51.140;4.088;2023-02-25T01:54:20;6.90;95.30
32217;DHT22;67098;51.140;4.088;2023-02-25T01:56:52;6.90;95.60
32217;DHT22;67098;51.140;4.088;2023-02-25T01:59:20;6.90;95.70
32217;DHT22;67098;51.140;4.088;2023-02-25T02:01:47;7.00;95.80
32217;DHT22;67098;51.140;4.088;2023-02-25T02:04:16;7.10;95.70
32217;DHT22;67098;51.140;4.088;2023-02-25T02:06:44;7.20;95.60
32217;DHT22;67098;51.140;4.088;2023-02-25T02:09:14;7.20;95.50
32217;DHT22;67098;51.140;4.088;2023-02-25T02:11:41;7.50;95.20
32217;DHT22;67098;51.140;4.088;2023-02-25T02:14:08;7.50;94.80
32217;DHT22;67098;51.140;4.088;2023-02-25T02:22:07;7.60;94.60
32217;DHT22;67098;51.140;4.088;2023-02-25T02:27:09;7.50;94.70
32217;DHT22;67098;51.140;4.088;2023-02-25T02:29:44;7.50;94.80
32217;DHT22;67098;51.140;4.088;2023-02-25T02:32:14;7.60;94.60
32217;DHT22;67098;51.140;4.088;2023-02-25T02:34:49;7.60;94.40
32217;DHT22;67098;51.140;4.088;2023-02-25T02:37:30;7.70;94.20
32217;DHT22;67098;51.140;4.088;2023-02-25T02:40:07;7.80;94.10
32217;DHT22;67098;51.140;4.088;2023-02-25T02:49:05;7.80;94.00
32217;DHT22;67098;51.140;4.088;2023-02-25T02:51:42;7.70;94.00
32217;DHT22;67098;51.140;4.088;2023-02-25T02:54:11;7.60;94.50
32217;DHT22;67098;51.140;4.088;2023-02-25T02:56:40;7.40;93.70
32217;DHT22;67098;51.140;4.088;2023-02-25T02:59:21;7.50;93.70
32217;DHT22;67098;51.140;4.088;2023-02-25T03:01:56;7.60;93.50
32217;DHT22;67098;51.140;4.088;2023-02-25T03:04:27;7.70;93.40
32217;DHT22;67098;51.140;4.088;2023-02-25T03:07:03;7.70;93.40
32217;DHT22;67098;51.140;4.088;2023-02-25T03:09:35;7.60;93.50
32217;DHT22;67098;51.140;4.088;2023-02-25T03:12:01;7.50;93.40
32217;DHT22;67098;51.140;4.088;2023-02-25T03:14:27;7.50;93.50
32217;DHT22;67098;51.140;4.088;2023-02-25T03:17:18;7.50;93.40
32217;DHT22;67098;51.140;4.088;2023-02-25T03:22:17;7.60;93.60
32217;DHT22;67098;51.140;4.088;2023-02-25T03:25:09;7.60;93.70
32217;DHT22;67098;51.140;4.088;2023-02-25T03:27:39;7.60;93.80
32217;DHT22;67098;51.140;4.088;2023-02-25T03:30:23;7.50;94.00
32217;DHT22;67098;51.140;4.088;2023-02-25T03:33:08;7.50;94.10
32217;DHT22;67098;51.140;4.088;2023-02-25T03:35:36;7.60;93.90
32217;DHT22;67098;51.140;4.088;2023-02-25T03:38:08;7.70;93.70
32217;DHT22;67098;51.140;4.088;2023-02-25T03:40:37;7.70;93.70
32217;DHT22;67098;51.140;4.088;2023-02-25T03:43:16;7.70;93.80
32217;DHT22;67098;51.140;4.088;2023-02-25T03:45:45;7.60;93.80
32217;DHT22;67098;51.140;4.088;2023-02-25T03:48:12;7.70;93.70
32217;DHT22;67098;51.140;4.088;2023-02-25T03:50:53;7.70;93.70
32217;DHT22;67098;51.140;4.088;2023-02-25T03:53:24;7.80;93.60
32217;DHT22;67098;51.140;4.088;2023-02-25T03:55:50;7.80;93.60
32217;DHT22;67098;51.140;4.088;2023-02-25T03:58:16;7.80;93.70
32217;DHT22;67098;51.140;4.088;2023-02-25T04:00:44;7.80;93.70
32217;DHT22;67098;51.140;4.088;2023-02-25T04:03:11;7.90;93.40
32217;DHT22;67098;51.140;4.088;2023-02-25T04:05:37;7.90;93.40
32217;DHT22;67098;51.140;4.088;2023-02-25T04:08:03;7.90;93.50
32217;DHT22;67098;51.140;4.088;2023-02-25T04:10:41;7.90;93.70
32217;DHT22;67098;51.140;4.088;2023-02-25T04:13:09;7.70;93.80
32217;DHT22;67098;51.140;4.088;2023-02-25T04:15:35;7.40;93.70
32217;DHT22;67098;51.140;4.088;2023-02-25T04:18:01;7.30;93.60
32217;DHT22;67098;51.140;4.088;2023-02-25T04:20:28;7.50;93.40
32217;DHT22;67098;51.140;4.088;2023-02-25T04:23:00;7.40;93.20
32217;DHT22;67098;51.140;4.088;2023-02-25T04:25:26;7.50;93.10
32217;DHT22;67098;51.140;4.088;2023-02-25T04:27:52;7.50;92.90
32217;DHT22;67098;51.140;4.088;2023-02-25T04:30:18;7.50;93.10
32217;DHT22;67098;51.140;4.088;2023-02-25T04:32:44;7.50;92.90
32217;DHT22;67098;51.140;4.088;2023-02-25T04:35:10;7.50;92.70
32217;DHT22;67098;51.140;4.088;2023-02-25T04:37:37;7.60;92.60
32217;DHT22;67098;51.140;4.088;2023-02-25T04:40:04;7.60;92.30
32217;DHT22;67098;51.140;4.088;2023-02-25T04:42:36;7.70;92.10
32217;DHT22;67098;51.140;4.088;2023-02-25T04:45:02;7.70;91.70
32217;DHT22;67098;51.140;4.088;2023-02-25T04:47:28;7.70;91.80
32217;DHT22;67098;51.140;4.088;2023-02-25T04:49:54;7.70;91.90
32217;DHT22;67098;51.140;4.088;2023-02-25T04:52:19;7.60;91.90
32217;DHT22;67098;51.140;4.088;2023-02-25T04:54:45;7.70;91.80
32217;DHT22;67098;51.140;4.088;2023-02-25T04:57:11;7.70;91.90
32217;DHT22;67098;51.140;4.088;2023-02-25T04:59:37;7.70;91.90
32217;DHT22;67098;51.140;4.088;2023-02-25T05:02:03;7.80;91.80
32217;DHT22;67098;51.140;4.088;2023-02-25T05:04:29;7.90;91.70
32217;DHT22;67098;51.140;4.088;2023-02-25T05:06:54;7.80;91.70
32217;DHT22;67098;51.140;4.088;2023-02-25T05:09:20;7.80;91.80
32217;DHT22;67098;51.140;4.088;2023-02-25T05:11:46;7.90;91.80
32217;DHT22;67098;51.140;4.088;2023-02-25T05:14:12;7.80;91.90
32217;DHT22;67098;51.140;4.088;2023-02-25T05:16:37;7.70;91.80
32217;DHT22;67098;51.140;4.088;2023-02-25T05:19:03;7.70;91.70
32217;DHT22;67098;51.140;4.088;2023-02-25T05:21:28;7.70;91.80
32217;DHT22;67098;51.140;4.088;2023-02-25T05:23:54;7.70;91.90
32217;DHT22;67098;51.140;4.088;2023-02-25T05:26:21;7.60;91.90
32217;DHT22;67098;51.140;4.088;2023-02-25T05:28:52;7.60;91.90
32217;DHT22;67098;51.140;4.088;2023-02-25T05:31:19;7.60;91.90
32217;DHT22;67098;51.140;4.088;2023-02-25T05:33:45;7.70;91.80
32217;DHT22;67098;51.140;4.088;2023-02-25T05:36:12;7.70;91.70
32217;DHT22;67098;51.140;4.088;2023-02-25T05:38:38;7.80;91.80
32217;DHT22;67098;51.140;4.088;2023-02-25T05:41:05;7.80;91.80
32217;DHT22;67098;51.140;4.088;2023-02-25T05:43:32;7.80;92.00
32217;DHT22;67098;51.140;4.088;2023-02-25T05:45:58;7.70;92.10
32217;DHT22;67098;51.140;4.088;2023-02-25T05:48:26;7.70;92.20
32217;DHT22;67098;51.140;4.088;2023-02-25T05:50:59;7.70;92.00
32217;DHT22;67098;51.140;4.088;2023-02-25T05:53:25;7.70;92.10
32217;DHT22;67098;51.140;4.088;2023-02-25T05:55:50;7.70;92.20
32217;DHT22;67098;51.140;4.088;2023-02-25T05:58:16;7.70;92.20
32217;DHT22;67098;51.140;4.088;2023-02-25T06:00:42;7.70;92.30
32217;DHT22;67098;51.140;4.088;2023-02-25T06:03:08;7.70;92.30
32217;DHT22;67098;51.140;4.088;2023-02-25T06:05:37;7.70;92.20
32217;DHT22;67098;51.140;4.088;2023-02-25T06:08:03;7.80;92.10
32217;DHT22;67098;51.140;4.088;2023-02-25T06:10:29;7.70;92.30
32217;DHT22;67098;51.140;4.088;2023-02-25T06:13:11;7.70;92.40
32217;DHT22;67098;51.140;4.088;2023-02-25T06:15:39;7.80;92.30
32217;DHT22;67098;51.140;4.088;2023-02-25T06:18:05;7.70;92.30
32217;DHT22;67098;51.140;4.088;2023-02-25T06:20:31;7.60;92.40
32217;DHT22;67098;51.140;4.088;2023-02-25T06:22:57;7.70;92.30
32217;DHT22;67098;51.140;4.088;2023-02-25T06:25:22;7.70;92.40
32217;DHT22;67098;51.140;4.088;2023-02-25T06:27:50;7.70;92.30
32217;DHT22;67098;51.140;4.088;2023-02-25T06:30:16;7.80;92.40
32217;DHT22;67098;51.140;4.088;2023-02-25T06:32:42;7.80;92.50
32217;DHT22;67098;51.140;4.088;2023-02-25T06:35:08;7.80;92.50
32217;DHT22;67098;51.140;4.088;2023-02-25T06:37:34;7.80;92.50
32217;DHT22;67098;51.140;4.088;2023-02-25T06:39:59;7.80;92.40
32217;DHT22;67098;51.140;4.088;2023-02-25T06:42:25;7.90;92.40
32217;DHT22;67098;51.140;4.088;2023-02-25T06:44:50;7.90;92.40
32217;DHT22;67098;51.140;4.088;2023-02-25T06:47:16;7.90;92.50
32217;DHT22;67098;51.140;4.088;2023-02-25T06:49:42;7.90;92.80
32217;DHT22;67098;51.140;4.088;2023-02-25T06:52:08;7.60;93.30
32217;DHT22;67098;51.140;4.088;2023-02-25T06:54:34;7.30;93.80
32217;DHT22;67098;51.140;4.088;2023-02-25T06:56:59;7.30;94.10
32217;DHT22;67098;51.140;4.088;2023-02-25T06:59:25;7.30;94.20
32217;DHT22;67098;51.140;4.088;2023-02-25T07:01:50;7.30;94.30
32217;DHT22;67098;51.140;4.088;2023-02-25T07:04:17;7.30;94.20
32217;DHT22;67098;51.140;4.088;2023-02-25T07:06:44;7.50;93.90
32217;DHT22;67098;51.140;4.088;2023-02-25T07:09:09;7.50;93.70
32217;DHT22;67098;51.140;4.088;2023-02-25T07:11:35;7.50;93.90
32217;DHT22;67098;51.140;4.088;2023-02-25T07:14:03;7.60;93.80
32217;DHT22;67098;51.140;4.088;2023-02-25T07:16:29;7.60;93.80
32217;DHT22;67098;51.140;4.088;2023-02-25T07:18:56;7.60;93.80
32217;DHT22;67098;51.140;4.088;2023-02-25T07:21:22;7.60;93.70
32217;DHT22;67098;51.140;4.088;2023-02-25T07:23:48;7.80;93.40
32217;DHT22;67098;51.140;4.088;2023-02-25T07:26:15;7.80;93.60
32217;DHT22;67098;51.140;4.088;2023-02-25T07:28:41;7.80;93.70
32217;DHT22;67098;51.140;4.088;2023-02-25T07:31:16;7.70;93.80
32217;DHT22;67098;51.140;4.088;2023-02-25T07:33:42;7.80;93.40
32217;DHT22;67098;51.140;4.088;2023-02-25T07:36:08;7.90;93.60
32217;DHT22;67098;51.140;4.088;2023-02-25T07:38:34;8.00;93.40
32217;DHT22;67098;51.140;4.088;2023-02-25T07:41:05;8.20;93.30
32217;DHT22;67098;51.140;4.088;2023-02-25T07:43:31;8.30;92.90
32217;DHT22;67098;51.140;4.088;2023-02-25T07:45:57;8.40;93.00
32217;DHT22;67098;51.140;4.088;2023-02-25T07:48:23;8.60;93.00
32217;DHT22;67098;51.140;4.088;2023-02-25T07:50:48;8.80;92.80
32217;DHT22;67098;51.140;4.088;2023-02-25T07:53:14;8.90;92.40
32217;DHT22;67098;51.140;4.088;2023-02-25T07:55:44;8.80;92.10
32217;DHT22;67098;51.140;4.088;2023-02-25T07:58:10;8.80;91.90
32217;DHT22;67098;51.140;4.088;2023-02-25T08:00:37;8.80;91.90
32217;DHT22;67098;51.140;4.088;2023-02-25T08:03:04;8.70;91.90
32217;DHT22;67098;51.140;4.088;2023-02-25T08:05:36;8.60;91.70
32217;DHT22;67098;51.140;4.088;2023-02-25T08:08:02;8.60;91.70
32217;DHT22;67098;51.140;4.088;2023-02-25T08:10:28;8.60;91.90
32217;DHT22;67098;51.140;4.088;2023-02-25T08:12:54;8.70;92.00
32217;DHT22;67098;51.140;4.088;2023-02-25T08:15:19;8.90;91.80
32217;DHT22;67098;51.140;4.088;2023-02-25T08:17:45;9.10;91.70
32217;DHT22;67098;51.140;4.088;2023-02-25T08:20:11;9.30;91.30
32217;DHT22;67098;51.140;4.088;2023-02-25T08:22:37;9.40;91.10
32217;DHT22;67098;51.140;4.088;2023-02-25T08:25:03;9.50;90.50
32217;DHT22;67098;51.140;4.088;2023-02-25T08:27:29;9.60;90.40
32217;DHT22;67098;51.140;4.088;2023-02-25T08:29:56;9.70;90.70
32217;DHT22;67098;51.140;4.088;2023-02-25T08:32:21;9.80;90.30
32217;DHT22;67098;51.140;4.088;2023-02-25T08:34:50;9.80;90.40
32217;DHT22;67098;51.140;4.088;2023-02-25T08:37:16;9.80;90.50
32217;DHT22;67098;51.140;4.088;2023-02-25T08:39:42;9.70;90.60
32217;DHT22;67098;51.140;4.088;2023-02-25T08:42:08;9.70;90.70
32217;DHT22;67098;51.140;4.088;2023-02-25T08:44:36;9.70;90.70
32217;DHT22;67098;51.140;4.088;2023-02-25T08:47:02;9.80;90.70
32217;DHT22;67098;51.140;4.088;2023-02-25T08:49:29;9.70;90.60
32217;DHT22;67098;51.140;4.088;2023-02-25T08:51:55;9.80;90.60
32217;DHT22;67098;51.140;4.088;2023-02-25T08:54:21;9.90;90.60
32217;DHT22;67098;51.140;4.088;2023-02-25T08:56:49;9.80;90.50
32217;DHT22;67098;51.140;4.088;2023-02-25T08:59:15;9.80;90.40
32217;DHT22;67098;51.140;4.088;2023-02-25T09:01:41;9.60;90.50
32217;DHT22;67098;51.140;4.088;2023-02-25T09:04:14;9.20;90.90
32217;DHT22;67098;51.140;4.088;2023-02-25T09:06:41;8.90;91.70
32217;DHT22;67098;51.140;4.088;2023-02-25T09:09:07;8.90;92.40
32217;DHT22;67098;51.140;4.088;2023-02-25T09:11:32;8.90;92.60
32217;DHT22;67098;51.140;4.088;2023-02-25T09:13:58;8.90;93.00
32217;DHT22;67098;51.140;4.088;2023-02-25T09:16:27;9.00;93.10
32217;DHT22;67098;51.140;4.088;2023-02-25T09:18:52;9.20;93.30
32217;DHT22;67098;51.140;4.088;2023-02-25T09:21:18;9.40;93.20
32217;DHT22;67098;51.140;4.088;2023-02-25T09:23:45;9.70;93.10
32217;DHT22;67098;51.140;4.088;2023-02-25T09:26:11;9.90;92.50
32217;DHT22;67098;51.140;4.088;2023-02-25T09:28:37;10.10;91.90
32217;DHT22;67098;51.140;4.088;2023-02-25T09:31:03;10.20;91.30
32217;DHT22;67098;51.140;4.088;2023-02-25T09:33:33;10.20;91.30
32217;DHT22;67098;51.140;4.088;2023-02-25T09:36:10;10.30;91.30
32217;DHT22;67098;51.140;4.088;2023-02-25T09:38:37;10.30;91.30
32217;DHT22;67098;51.140;4.088;2023-02-25T09:44:05;10.00;90.30
32217;DHT22;67098;51.140;4.088;2023-02-25T09:46:34;9.70;89.90
32217;DHT22;67098;51.140;4.088;2023-02-25T09:49:06;9.50;90.40
32217;DHT22;67098;51.140;4.088;2023-02-25T09:51:40;9.60;90.50
32217;DHT22;67098;51.140;4.088;2023-02-25T09:56:34;9.50;90.40
32217;DHT22;67098;51.140;4.088;2023-02-25T09:59:00;9.60;90.60
32217;DHT22;67098;51.140;4.088;2023-02-25T10:01:33;9.70;90.90
32217;DHT22;67098;51.140;4.088;2023-02-25T10:04:12;10.00;90.60
32217;DHT22;67098;51.140;4.088;2023-02-25T10:06:46;10.30;90.00
32217;DHT22;67098;51.140;4.088;2023-02-25T10:15:14;10.70;87.50
32217;DHT22;67098;51.140;4.088;2023-02-25T10:20:37;10.40;87.60
32217;DHT22;67098;51.140;4.088;2023-02-25T10:26:15;10.50;87.50
32217;DHT22;67098;51.140;4.088;2023-02-25T10:28:42;10.60;86.40
32217;DHT22;67098;51.140;4.088;2023-02-25T10:31:20;10.50;87.10
32217;DHT22;67098;51.140;4.088;2023-02-25T10:33:49;10.60;87.90
32217;DHT22;67098;51.140;4.088;2023-02-25T10:36:36;10.80;87.80
32217;DHT22;67098;51.140;4.088;2023-02-25T10:39:07;10.90;86.70
32217;DHT22;67098;51.140;4.088;2023-02-25T10:41:34;10.80;86.80
32217;DHT22;67098;51.140;4.088;2023-02-25T10:44:00;10.80;86.50
32217;DHT22;67098;51.140;4.088;2023-02-25T10:49:00;10.80;86.40
32217;DHT22;67098;51.140;4.088;2023-02-25T10:51:26;10.80;86.30
32217;DHT22;67098;51.140;4.088;2023-02-25T10:56:43;11.30;83.40
32217;DHT22;67098;51.140;4.088;2023-02-25T10:59:25;11.50;82.60
32217;DHT22;67098;51.140;4.088;2023-02-25T11:01:52;11.70;80.30
32217;DHT22;67098;51.140;4.088;2023-02-25T11:04:23;11.90;80.40
32217;DHT22;67098;51.140;4.088;2023-02-25T11:06:50;12.20;80.30
32217;DHT22;67098;51.140;4.088;2023-02-25T11:12:00;12.50;80.50
32217;DHT22;67098;51.140;4.088;2023-02-25T11:14:35;12.20;80.80
32217;DHT22;67098;51.140;4.088;2023-02-25T11:19:36;11.90;80.80
32217;DHT22;67098;51.140;4.088;2023-02-25T11:25:01;11.60;80.10
32217;DHT22;67098;51.140;4.088;2023-02-25T11:27:30;11.60;80.00
32217;DHT22;67098;51.140;4.088;2023-02-25T11:30:23;11.60;79.60
32217;DHT22;67098;51.140;4.088;2023-02-25T11:32:52;11.50;80.20
32217;DHT22;67098;51.140;4.088;2023-02-25T11:35:32;11.60;78.60
32217;DHT22;67098;51.140;4.088;2023-02-25T11:38:21;11.60;77.10
32217;DHT22;67098;51.140;4.088;2023-02-25T11:40:49;11.60;76.40
32217;DHT22;67098;51.140;4.088;2023-02-25T11:43:19;11.80;76.90
32217;DHT22;67098;51.140;4.088;2023-02-25T11:48:28;12.40;76.10
32217;DHT22;67098;51.140;4.088;2023-02-25T11:56:29;11.60;78.70
32217;DHT22;67098;51.140;4.088;2023-02-25T12:10:49;10.30;80.20
32217;DHT22;67098;51.140;4.088;2023-02-25T12:16:49;10.90;80.10
32217;DHT22;67098;51.140;4.088;2023-02-25T12:25:46;14.00;70.20
32217;DHT22;67098;51.140;4.088;2023-02-25T12:30:49;13.50;70.90
32217;DHT22;67098;51.140;4.088;2023-02-25T12:42:09;12.40;74.30
32217;DHT22;67098;51.140;4.088;2023-02-25T12:44:47;12.10;72.90
32217;DHT22;67098;51.140;4.088;2023-02-25T12:55:41;12.40;76.50
32217;DHT22;67098;51.140;4.088;2023-02-25T13:06:46;14.70;72.50
32217;DHT22;67098;51.140;4.088;2023-02-25T13:09:28;14.70;71.80
32217;DHT22;67098;51.140;4.088;2023-02-25T13:14:54;13.20;72.00
32217;DHT22;67098;51.140;4.088;2023-02-25T13:18:23;12.20;73.10
32217;DHT22;67098;51.140;4.088;2023-02-25T13:23:54;10.90;77.10
32217;DHT22;67098;51.140;4.088;2023-02-25T13:26:37;11.00;78.10
32217;DHT22;67098;51.140;4.088;2023-02-25T13:35:08;12.10;75.50
32217;DHT22;67098;51.140;4.088;2023-02-25T13:38:05;12.40;73.50
32217;DHT22;67098;51.140;4.088;2023-02-25T13:40:46;12.50;72.00
32217;DHT22;67098;51.140;4.088;2023-02-25T14:03:02;16.80;61.70
32217;DHT22;67098;51.140;4.088;2023-02-25T14:14:11;15.70;64.10
32217;DHT22;67098;51.140;4.088;2023-02-25T14:17:23;14.60;65.80
32217;DHT22;67098;51.140;4.088;2023-02-25T14:20:17;13.40;69.80
32217;DHT22;67098;51.140;4.088;2023-02-25T14:23:11;12.40;74.00
32217;DHT22;67098;51.140;4.088;2023-02-25T14:31:19;11.50;74.00
32217;DHT22;67098;51.140;4.088;2023-02-25T14:34:00;11.50;70.50
32217;DHT22;67098;51.140;4.088;2023-02-25T14:37:02;11.70;68.30
32217;DHT22;67098;51.140;4.088;2023-02-25T14:45:22;13.90;62.10
32217;DHT22;67098;51.140;4.088;2023-02-25T14:50:47;14.90;61.20
32217;DHT22;67098;51.140;4.088;2023-02-25T15:21:43;14.10;59.70
32217;DHT22;67098;51.140;4.088;2023-02-25T15:24:36;14.20;59.90
32217;DHT22;67098;51.140;4.088;2023-02-25T15:30:18;14.20;59.00
32217;DHT22;67098;51.140;4.088;2023-02-25T15:35:50;14.10;59.40
32217;DHT22;67098;51.140;4.088;2023-02-25T15:38:38;13.90;59.50
32217;DHT22;67098;51.140;4.088;2023-02-25T15:43:55;13.70;60.20
32217;DHT22;67098;51.140;4.088;2023-02-25T15:51:44;13.10;61.20
32217;DHT22;67098;51.140;4.088;2023-02-25T15:59:47;13.60;62.00
32217;DHT22;67098;51.140;4.088;2023-02-25T16:07:43;13.20;59.80
32217;DHT22;67098;51.140;4.088;2023-02-25T16:10:44;12.70;59.50
32217;DHT22;67098;51.140;4.088;2023-02-25T16:13:15;12.50;60.60
32217;DHT22;67098;51.140;4.088;2023-02-25T16:15:52;12.20;60.50
32217;DHT22;67098;51.140;4.088;2023-02-25T16:21:09;11.60;60.10
32217;DHT22;67098;51.140;4.088;2023-02-25T16:23:38;11.30;60.40
32217;DHT22;67098;51.140;4.088;2023-02-25T16:31:45;10.50;61.00
32217;DHT22;67098;51.140;4.088;2023-02-25T16:34:27;10.30;61.60
32217;DHT22;67098;51.140;4.088;2023-02-25T16:37:17;10.10;61.70
32217;DHT22;67098;51.140;4.088;2023-02-25T16:39:47;10.00;62.50
32217;DHT22;67098;51.140;4.088;2023-02-25T16:42:15;10.00;62.80
32217;DHT22;67098;51.140;4.088;2023-02-25T16:44:45;10.00;63.40
32217;DHT22;67098;51.140;4.088;2023-02-25T16:47:23;9.90;63.80
32217;DHT22;67098;51.140;4.088;2023-02-25T16:49:51;10.00;64.20
32217;DHT22;67098;51.140;4.088;2023-02-25T16:52:23;9.90;64.60
32217;DHT22;67098;51.140;4.088;2023-02-25T16:54:55;9.90;65.00
32217;DHT22;67098;51.140;4.088;2023-02-25T16:57:24;9.70;64.70
32217;DHT22;67098;51.140;4.088;2023-02-25T17:00:13;9.60;65.30
32217;DHT22;67098;51.140;4.088;2023-02-25T17:02:48;9.50;65.20
32217;DHT22;67098;51.140;4.088;2023-02-25T17:05:29;9.40;65.20
32217;DHT22;67098;51.140;4.088;2023-02-25T17:07:59;9.20;65.60
32217;DHT22;67098;51.140;4.088;2023-02-25T17:10:45;9.10;65.90
32217;DHT22;67098;51.140;4.088;2023-02-25T17:13:39;9.00;65.40
32217;DHT22;67098;51.140;4.088;2023-02-25T17:16:06;8.90;65.90
32217;DHT22;67098;51.140;4.088;2023-02-25T17:18:44;8.70;66.10
32217;DHT22;67098;51.140;4.088;2023-02-25T17:21:57;8.70;66.40
32217;DHT22;67098;51.140;4.088;2023-02-25T17:24:06;8.70;66.30
32217;DHT22;67098;51.140;4.088;2023-02-25T17:26:33;8.60;66.90
32217;DHT22;67098;51.140;4.088;2023-02-25T17:29:00;8.40;67.80
32217;DHT22;67098;51.140;4.088;2023-02-25T17:31:28;8.50;68.10
32217;DHT22;67098;51.140;4.088;2023-02-25T17:34:00;8.40;69.10
32217;DHT22;67098;51.140;4.088;2023-02-25T17:36:29;8.20;70.10
32217;DHT22;67098;51.140;4.088;2023-02-25T17:38:59;8.30;70.20
32217;DHT22;67098;51.140;4.088;2023-02-25T17:41:26;8.30;70.10
32217;DHT22;67098;51.140;4.088;2023-02-25T17:43:52;8.30;69.90
32217;DHT22;67098;51.140;4.088;2023-02-25T17:49:00;8.20;70.00
32217;DHT22;67098;51.140;4.088;2023-02-25T17:51:37;8.20;69.60
32217;DHT22;67098;51.140;4.088;2023-02-25T17:54:07;8.20;69.50
32217;DHT22;67098;51.140;4.088;2023-02-25T17:56:34;8.10;69.60
32217;DHT22;67098;51.140;4.088;2023-02-25T17:59:22;8.10;69.60
32217;DHT22;67098;51.140;4.088;2023-02-25T18:02:00;8.10;69.00
32217;DHT22;67098;51.140;4.088;2023-02-25T18:04:38;7.90;68.60
32217;DHT22;67098;51.140;4.088;2023-02-25T18:07:31;7.80;68.10
32217;DHT22;67098;51.140;4.088;2023-02-25T18:10:03;7.80;67.70
32217;DHT22;67098;51.140;4.088;2023-02-25T18:12:35;7.70;66.90
32217;DHT22;67098;51.140;4.088;2023-02-25T18:15:14;7.70;67.00
32217;DHT22;67098;51.140;4.088;2023-02-25T18:17:42;7.70;67.50
32217;DHT22;67098;51.140;4.088;2023-02-25T18:20:35;7.60;68.00
32217;DHT22;67098;51.140;4.088;2023-02-25T18:25:43;7.70;68.20
32217;DHT22;67098;51.140;4.088;2023-02-25T18:28:15;7.70;67.70
32217;DHT22;67098;51.140;4.088;2023-02-25T18:30:42;7.60;67.80
32217;DHT22;67098;51.140;4.088;2023-02-25T18:33:08;7.60;68.00
32217;DHT22;67098;51.140;4.088;2023-02-25T18:35:39;7.60;68.00
32217;DHT22;67098;51.140;4.088;2023-02-25T18:38:14;7.50;68.40
32217;DHT22;67098;51.140;4.088;2023-02-25T18:40:40;7.40;69.00
32217;DHT22;67098;51.140;4.088;2023-02-25T18:43:06;7.30;68.90
32217;DHT22;67098;51.140;4.088;2023-02-25T18:45:34;7.30;68.80
32217;DHT22;67098;51.140;4.088;2023-02-25T18:48:00;7.20;68.50
32217;DHT22;67098;51.140;4.088;2023-02-25T18:50:30;7.20;68.80
32217;DHT22;67098;51.140;4.088;2023-02-25T18:52:56;7.10;69.00
32217;DHT22;67098;51.140;4.088;2023-02-25T18:55:28;7.10;69.00
32217;DHT22;67098;51.140;4.088;2023-02-25T18:57:54;7.20;68.80
32217;DHT22;67098;51.140;4.088;2023-02-25T19:00:22;7.20;68.80
32217;DHT22;67098;51.140;4.088;2023-02-25T19:05:16;7.20;69.10
32217;DHT22;67098;51.140;4.088;2023-02-25T19:07:43;7.20;69.50
32217;DHT22;67098;51.140;4.088;2023-02-25T19:10:14;7.10;69.70
32217;DHT22;67098;51.140;4.088;2023-02-25T19:12:39;7.20;69.90
32217;DHT22;67098;51.140;4.088;2023-02-25T19:15:10;7.20;70.10
32217;DHT22;67098;51.140;4.088;2023-02-25T19:17:37;7.10;70.30
32217;DHT22;67098;51.140;4.088;2023-02-25T19:20:03;7.10;70.70
32217;DHT22;67098;51.140;4.088;2023-02-25T19:22:28;7.10;71.10
32217;DHT22;67098;51.140;4.088;2023-02-25T19:24:55;7.00;71.20
32217;DHT22;67098;51.140;4.088;2023-02-25T19:27:23;7.00;71.50
32217;DHT22;67098;51.140;4.088;2023-02-25T19:29:52;7.00;71.70
32217;DHT22;67098;51.140;4.088;2023-02-25T19:32:19;7.00;72.40
32217;DHT22;67098;51.140;4.088;2023-02-25T19:34:46;6.90;72.00
32217;DHT22;67098;51.140;4.088;2023-02-25T19:37:14;6.90;72.10
32217;DHT22;67098;51.140;4.088;2023-02-25T19:39:40;6.90;72.30
32217;DHT22;67098;51.140;4.088;2023-02-25T19:42:06;6.80;72.20
32217;DHT22;67098;51.140;4.088;2023-02-25T19:44:33;6.90;72.30
32217;DHT22;67098;51.140;4.088;2023-02-25T19:47:00;6.80;72.40
32217;DHT22;67098;51.140;4.088;2023-02-25T19:49:26;6.80;72.40
32217;DHT22;67098;51.140;4.088;2023-02-25T19:51:52;6.80;72.20
32217;DHT22;67098;51.140;4.088;2023-02-25T19:54:19;6.80;72.40